Time;durP1;ratioP1;P1;durP2;ratioP2;P2;SDS_P1;SDS_P2;PMS_P1;PMS_P2;Temp;Humidity;BMP_temperature;BMP_pressure;BME280_temperature;BME280_humidity;BME280_pressure;Samples;Min_cycle;Max_cycle;Signal;HPM_P1;HPM_P2
2022/04/29 00:00:05;;;;;;;6.40;5.33;;;;;;;;;;5081862;28;20194;-74
2022/04/29 00:02:31;;;;;;;6.60;5.23;;;;;;;;;;5093525;28;20180;-74
2022/04/29 00:04:56;;;;;;;6.57;5.20;;;;;;;;;;5092171;28;20165;-74
2022/04/29 00:07:22;;;;;;;7.00;6.30;;;;;;;;;;5090858;28;20209;-74
2022/04/29 00:09:47;;;;;;;7.63;5.70;;;;;;;;;;5086243;28;20606;-75
2022/04/29 00:12:12;;;;;;;6.50;5.10;;;;;;;;;;5087157;28;20170;-75
2022/04/29 00:14:37;;;;;;;6.67;5.97;;;;;;;;;;5084158;28;20204;-74
2022/04/29 00:17:03;;;;;;;5.83;5.23;;;;;;;;;;5090283;28;20202;-74
2022/04/29 00:19:28;;;;;;;7.97;6.33;;;;;;;;;;5091961;28;20270;-75
2022/04/29 00:21:53;;;;;;;5.67;5.13;;;;;;;;;;5087632;28;20180;-75
2022/04/29 00:24:18;;;;;;;6.53;5.93;;;;;;;;;;5086430;28;20223;-74
2022/04/29 00:26:44;;;;;;;5.83;5.33;;;;;;;;;;5087203;28;20364;-75
2022/04/29 00:29:09;;;;;;;6.47;5.50;;;;;;;;;;5077118;28;21484;-75
2022/04/29 00:31:35;;;;;;;7.07;5.97;;;;;;;;;;5085332;28;20208;-74
2022/04/29 00:34:00;;;;;;;5.77;5.27;;;;;;;;;;5086543;28;20333;-75
2022/04/29 00:36:25;;;;;;;5.80;5.30;;;;;;;;;;5082145;28;20185;-75
2022/04/29 00:38:51;;;;;;;6.37;5.77;;;;;;;;;;5089807;28;20200;-75
2022/04/29 00:41:16;;;;;;;5.83;5.23;;;;;;;;;;5083740;28;20391;-74
2022/04/29 00:43:42;;;;;;;6.10;5.20;;;;;;;;;;5081738;28;20173;-75
2022/04/29 00:46:08;;;;;;;6.77;5.47;;;;;;;;;;5092404;28;20195;-74
2022/04/29 00:48:33;;;;;;;5.43;4.93;;;;;;;;;;5082382;28;20223;-74
2022/04/29 00:50:58;;;;;;;5.53;4.80;;;;;;;;;;5102293;28;20180;-75
2022/04/29 00:53:24;;;;;;;5.20;4.80;;;;;;;;;;5081197;28;20191;-75
2022/04/29 00:55:50;;;;;;;6.50;5.93;;;;;;;;;;5087217;28;20197;-75
2022/04/29 00:58:24;;;;;;;6.70;5.50;;;;;;;;;;5093318;28;20206;-74
2022/04/29 01:00:49;;;;;;;5.37;4.87;;;;;;;;;;5085998;28;20198;-75
2022/04/29 01:03:15;;;;;;;7.13;6.03;;;;;;;;;;5078976;28;20169;-74
2022/04/29 01:05:41;;;;;;;6.80;5.43;;;;;;;;;;5086549;28;20216;-74
2022/04/29 01:08:06;;;;;;;10.57;6.27;;;;;;;;;;5089986;28;20284;-75
2022/04/29 01:10:32;;;;;;;5.67;5.10;;;;;;;;;;5086239;28;20189;-75
2022/04/29 01:13:02;;;;;;;5.70;5.00;;;;;;;;;;5086039;28;20256;-74
2022/04/29 01:15:28;;;;;;;5.73;5.20;;;;;;;;;;5087824;28;20212;-75
2022/04/29 01:17:55;;;;;;;6.23;5.33;;;;;;;;;;5089056;28;20205;-74
2022/04/29 01:20:23;;;;;;;5.37;4.87;;;;;;;;;;5083078;28;20227;-74
2022/04/29 01:22:48;;;;;;;6.20;5.60;;;;;;;;;;5087652;28;20185;-74
2022/04/29 01:25:13;;;;;;;5.67;5.07;;;;;;;;;;5088056;28;20221;-75
2022/04/29 01:27:39;;;;;;;5.60;5.10;;;;;;;;;;5085781;28;20229;-74
2022/04/29 01:30:04;;;;;;;6.37;5.80;;;;;;;;;;5078596;28;20202;-75
2022/04/29 01:32:33;;;;;;;6.43;5.70;;;;;;;;;;5090704;28;20173;-74
2022/04/29 01:34:58;;;;;;;6.23;5.63;;;;;;;;;;5077403;28;20181;-74
2022/04/29 01:37:24;;;;;;;5.20;4.70;;;;;;;;;;5091710;28;20224;-74
2022/04/29 01:39:49;;;;;;;6.23;5.47;;;;;;;;;;5090562;28;20200;-74
2022/04/29 01:42:14;;;;;;;6.70;5.07;;;;;;;;;;5081665;28;20174;-74
2022/04/29 01:44:39;;;;;;;5.87;5.27;;;;;;;;;;5081713;28;20402;-74
2022/04/29 01:47:05;;;;;;;6.03;5.10;;;;;;;;;;5089888;28;20173;-75
2022/04/29 01:49:30;;;;;;;8.63;6.53;;;;;;;;;;5081563;28;20172;-74
2022/04/29 01:51:56;;;;;;;8.10;6.00;;;;;;;;;;5084991;28;20176;-74
2022/04/29 01:54:21;;;;;;;6.53;5.20;;;;;;;;;;5089337;28;20173;-74
2022/04/29 01:56:47;;;;;;;6.13;5.63;;;;;;;;;;5081692;28;20273;-74
2022/04/29 01:59:13;;;;;;;6.93;6.07;;;;;;;;;;5085997;28;20220;-74
2022/04/29 02:01:38;;;;;;;8.77;5.90;;;;;;;;;;5086784;28;20173;-74
2022/04/29 02:04:03;;;;;;;7.77;5.10;;;;;;;;;;5084637;28;20190;-74
2022/04/29 02:06:28;;;;;;;6.03;5.37;;;;;;;;;;5087560;28;20225;-74
2022/04/29 02:08:54;;;;;;;5.83;5.23;;;;;;;;;;5094125;28;20177;-74
2022/04/29 02:11:19;;;;;;;6.17;5.57;;;;;;;;;;5076537;28;20208;-74
2022/04/29 02:13:45;;;;;;;5.43;4.93;;;;;;;;;;5084068;28;20258;-75
2022/04/29 02:16:10;;;;;;;8.77;5.37;;;;;;;;;;5080357;28;20226;-75
2022/04/29 02:18:36;;;;;;;5.87;4.93;;;;;;;;;;5092783;28;20289;-74
2022/04/29 02:21:01;;;;;;;6.97;5.93;;;;;;;;;;5087304;28;20175;-74
2022/04/29 02:23:26;;;;;;;6.03;5.50;;;;;;;;;;5083489;28;20189;-74
2022/04/29 02:25:52;;;;;;;5.73;5.23;;;;;;;;;;5087376;28;20256;-75
2022/04/29 02:28:17;;;;;;;7.37;5.63;;;;;;;;;;5084871;28;20227;-74
2022/04/29 02:30:43;;;;;;;7.00;6.30;;;;;;;;;;5079104;28;20194;-74
2022/04/29 02:33:08;;;;;;;6.43;5.60;;;;;;;;;;5084884;28;20270;-74
2022/04/29 02:35:33;;;;;;;6.17;5.33;;;;;;;;;;5078257;28;20176;-74
2022/04/29 02:37:58;;;;;;;6.30;5.70;;;;;;;;;;5081715;28;20184;-74
2022/04/29 02:40:24;;;;;;;6.00;5.40;;;;;;;;;;5083165;28;22210;-74
2022/04/29 02:42:50;;;;;;;5.60;5.10;;;;;;;;;;5083213;28;20187;-74
2022/04/29 02:45:15;;;;;;;7.07;5.50;;;;;;;;;;5080842;28;20187;-74
2022/04/29 02:47:40;;;;;;;6.33;5.73;;;;;;;;;;5090364;28;20177;-74
2022/04/29 02:50:05;;;;;;;7.43;6.23;;;;;;;;;;5086147;28;20230;-75
2022/04/29 02:52:31;;;;;;;6.67;5.90;;;;;;;;;;5090997;28;20234;-74
2022/04/29 02:54:56;;;;;;;5.73;5.13;;;;;;;;;;5083682;28;20221;-74
2022/04/29 02:57:21;;;;;;;6.53;5.70;;;;;;;;;;5086179;28;20320;-75
2022/04/29 02:59:46;;;;;;;6.53;5.87;;;;;;;;;;5087926;28;20216;-74
2022/04/29 03:02:12;;;;;;;8.53;6.33;;;;;;;;;;5091141;28;20180;-74
2022/04/29 03:04:37;;;;;;;6.57;5.87;;;;;;;;;;5093179;28;20179;-74
2022/04/29 03:07:02;;;;;;;7.13;6.30;;;;;;;;;;5091959;28;20202;-74
2022/04/29 03:09:30;;;;;;;6.97;5.80;;;;;;;;;;5088235;28;20241;-74
2022/04/29 03:11:55;;;;;;;7.70;6.20;;;;;;;;;;5090989;28;20180;-74
2022/04/29 03:14:20;;;;;;;7.83;6.10;;;;;;;;;;5091308;28;20194;-74
2022/04/29 03:16:45;;;;;;;8.23;6.97;;;;;;;;;;5101926;28;20266;-74
2022/04/29 03:19:10;;;;;;;8.93;6.63;;;;;;;;;;5083481;28;20203;-74
2022/04/29 03:21:36;;;;;;;7.67;6.13;;;;;;;;;;5094776;28;20175;-74
2022/04/29 03:24:01;;;;;;;8.77;6.67;;;;;;;;;;5084309;28;20234;-74
2022/04/29 03:26:27;;;;;;;9.77;7.00;;;;;;;;;;5090389;28;20216;-74
2022/04/29 03:28:52;;;;;;;7.73;6.77;;;;;;;;;;5085911;28;20192;-74
2022/04/29 03:31:17;;;;;;;8.07;6.63;;;;;;;;;;5090861;28;20192;-75
2022/04/29 03:33:42;;;;;;;8.37;6.77;;;;;;;;;;5089443;28;20182;-75
2022/04/29 03:36:08;;;;;;;9.10;6.67;;;;;;;;;;5078678;28;20263;-75
2022/04/29 03:38:35;;;;;;;7.13;6.43;;;;;;;;;;5082673;28;20200;-75
2022/04/29 03:41:01;;;;;;;7.27;6.17;;;;;;;;;;5080720;28;20165;-74
2022/04/29 03:43:26;;;;;;;7.70;6.63;;;;;;;;;;5083308;28;20168;-74
2022/04/29 03:45:51;;;;;;;8.23;6.33;;;;;;;;;;5080562;28;20176;-74
2022/04/29 03:48:16;;;;;;;11.10;6.73;;;;;;;;;;5083296;28;20174;-73
2022/04/29 03:50:42;;;;;;;9.07;6.77;;;;;;;;;;5085004;28;20179;-74
2022/04/29 03:53:08;;;;;;;9.97;7.23;;;;;;;;;;5084499;28;20203;-74
2022/04/29 03:55:34;;;;;;;10.53;7.27;;;;;;;;;;5083647;28;20184;-74
2022/04/29 03:58:02;;;;;;;9.50;7.43;;;;;;;;;;5081849;28;20182;-74
2022/04/29 04:00:31;;;;;;;8.33;6.70;;;;;;;;;;5089734;28;20218;-75
2022/04/29 04:02:56;;;;;;;8.13;6.03;;;;;;;;;;5076956;28;20176;-74
2022/04/29 04:05:23;;;;;;;7.80;6.13;;;;;;;;;;5087431;28;20176;-74
2022/04/29 04:07:48;;;;;;;7.93;6.67;;;;;;;;;;5095738;28;20205;-75
2022/04/29 04:10:13;;;;;;;7.93;6.27;;;;;;;;;;5086782;28;20269;-74
2022/04/29 04:12:51;;;;;;;7.93;6.67;;;;;;;;;;5087659;28;20185;-74
2022/04/29 04:15:17;;;;;;;7.27;6.43;;;;;;;;;;5078430;28;20188;-74
2022/04/29 04:17:43;;;;;;;7.80;6.70;;;;;;;;;;5091427;28;20192;-74
2022/04/29 04:20:10;;;;;;;7.30;5.97;;;;;;;;;;5083288;28;20211;-74
2022/04/29 04:22:36;;;;;;;7.00;5.83;;;;;;;;;;5082439;28;20190;-75
2022/04/29 04:25:02;;;;;;;9.27;6.80;;;;;;;;;;5085246;28;20184;-75
2022/04/29 04:27:27;;;;;;;8.00;6.90;;;;;;;;;;5080764;28;20278;-74
2022/04/29 04:29:52;;;;;;;10.50;7.27;;;;;;;;;;5083296;28;20207;-74
2022/04/29 04:32:18;;;;;;;9.00;6.83;;;;;;;;;;5088582;28;20191;-74
2022/04/29 04:34:53;;;;;;;11.23;9.47;;;;;;;;;;5085180;28;20190;-74
2022/04/29 04:37:25;;;;;;;8.63;7.30;;;;;;;;;;5084034;28;20535;-74
2022/04/29 04:39:50;;;;;;;9.53;8.00;;;;;;;;;;5083520;28;20258;-74
2022/04/29 04:42:15;;;;;;;9.97;7.97;;;;;;;;;;5085422;28;20175;-74
2022/04/29 04:44:41;;;;;;;11.67;9.07;;;;;;;;;;5090633;28;20194;-74
2022/04/29 04:47:06;;;;;;;9.40;7.50;;;;;;;;;;5086494;28;20174;-74
2022/04/29 04:49:32;;;;;;;10.30;7.40;;;;;;;;;;5076199;28;20179;-74
2022/04/29 04:51:57;;;;;;;10.47;8.43;;;;;;;;;;5093783;28;20195;-74
2022/04/29 04:54:23;;;;;;;10.50;8.27;;;;;;;;;;5088550;28;20210;-74
2022/04/29 04:56:48;;;;;;;8.57;7.67;;;;;;;;;;5086359;28;20195;-74
2022/04/29 04:59:13;;;;;;;9.43;6.93;;;;;;;;;;5090319;28;20226;-74
2022/04/29 05:01:38;;;;;;;10.23;7.27;;;;;;;;;;5086406;28;20266;-74
2022/04/29 05:04:04;;;;;;;11.80;7.80;;;;;;;;;;5083231;28;20209;-74
2022/04/29 05:06:29;;;;;;;7.93;7.13;;;;;;;;;;5087326;28;20206;-74
2022/04/29 05:08:54;;;;;;;8.90;7.67;;;;;;;;;;5081049;28;20181;-75
2022/04/29 05:11:19;;;;;;;10.70;6.80;;;;;;;;;;5080672;28;20212;-74
2022/04/29 05:13:44;;;;;;;8.50;7.60;;;;;;;;;;5082638;28;20266;-74
2022/04/29 05:16:09;;;;;;;8.20;7.40;;;;;;;;;;5079141;28;20176;-75
2022/04/29 05:18:35;;;;;;;11.40;8.40;;;;;;;;;;5087349;28;20204;-74
2022/04/29 05:21:00;;;;;;;8.17;7.27;;;;;;;;;;5078568;28;20175;-75
2022/04/29 05:23:25;;;;;;;10.53;8.03;;;;;;;;;;5081945;28;20210;-74
2022/04/29 05:25:50;;;;;;;10.07;7.93;;;;;;;;;;5078229;28;20223;-74
2022/04/29 05:28:16;;;;;;;10.87;7.33;;;;;;;;;;5091541;28;20227;-74
2022/04/29 05:30:41;;;;;;;9.03;7.10;;;;;;;;;;5086923;28;20178;-74
2022/04/29 05:33:07;;;;;;;10.13;7.90;;;;;;;;;;5091363;28;20171;-74
2022/04/29 05:35:33;;;;;;;10.50;7.27;;;;;;;;;;5083276;28;20168;-74
2022/04/29 05:37:59;;;;;;;10.17;7.23;;;;;;;;;;5089601;28;20171;-74
2022/04/29 05:43:08;;;;;;;10.90;8.00;;;;;;;;;;5090059;28;20190;-74
2022/04/29 05:45:34;;;;;;;14.63;7.70;;;;;;;;;;5087992;28;20183;-74
2022/04/29 05:47:59;;;;;;;9.03;6.63;;;;;;;;;;5090369;28;20196;-75
2022/04/29 05:50:24;;;;;;;10.77;7.07;;;;;;;;;;5082876;28;20179;-74
2022/04/29 05:52:49;;;;;;;10.40;7.13;;;;;;;;;;5080660;28;20183;-75
2022/04/29 05:55:14;;;;;;;10.87;7.77;;;;;;;;;;5086182;28;20192;-75
2022/04/29 05:57:40;;;;;;;10.30;7.63;;;;;;;;;;5081344;28;20179;-74
2022/04/29 06:00:05;;;;;;;11.40;8.03;;;;;;;;;;5080201;28;20306;-75
2022/04/29 06:02:31;;;;;;;8.77;6.47;;;;;;;;;;5086193;28;20179;-75
2022/04/29 06:04:56;;;;;;;8.50;6.70;;;;;;;;;;5083452;28;20206;-75
2022/04/29 06:07:21;;;;;;;7.23;5.63;;;;;;;;;;5084273;28;20191;-75
2022/04/29 06:09:47;;;;;;;9.80;7.33;;;;;;;;;;5087716;28;20180;-74
2022/04/29 06:12:13;;;;;;;7.93;6.83;;;;;;;;;;5088318;28;20203;-74
2022/04/29 06:14:38;;;;;;;8.03;6.23;;;;;;;;;;5080305;28;20230;-74
2022/04/29 06:17:04;;;;;;;10.37;6.83;;;;;;;;;;5075841;28;20172;-74
2022/04/29 06:19:29;;;;;;;8.17;6.43;;;;;;;;;;5079867;28;20645;-74
2022/04/29 06:21:54;;;;;;;9.60;6.67;;;;;;;;;;5084472;28;20485;-75
2022/04/29 06:24:19;;;;;;;6.37;5.10;;;;;;;;;;5085616;28;20184;-75
2022/04/29 06:26:45;;;;;;;9.93;6.37;;;;;;;;;;5069824;28;20198;-75
2022/04/29 06:29:10;;;;;;;27.33;25.53;;;;;;;;;;5076824;28;20181;-75
2022/04/29 06:31:35;;;;;;;8.53;6.53;;;;;;;;;;5086244;28;20204;-74
2022/04/29 06:34:00;;;;;;;7.43;6.07;;;;;;;;;;5081457;28;20438;-75
2022/04/29 06:36:28;;;;;;;6.10;5.50;;;;;;;;;;5083291;28;20169;-74
2022/04/29 06:38:53;;;;;;;6.03;5.43;;;;;;;;;;5085783;28;20199;-75
2022/04/29 06:41:18;;;;;;;7.80;6.10;;;;;;;;;;5077500;28;20207;-74
2022/04/29 06:43:44;;;;;;;6.57;5.53;;;;;;;;;;5086015;28;20173;-74
2022/04/29 06:46:10;;;;;;;8.07;6.50;;;;;;;;;;5079718;28;20175;-75
2022/04/29 06:48:35;;;;;;;6.43;5.77;;;;;;;;;;5086323;28;20173;-74
2022/04/29 06:51:01;;;;;;;8.67;6.23;;;;;;;;;;5078113;28;20199;-75
2022/04/29 06:53:27;;;;;;;6.33;5.73;;;;;;;;;;5079443;28;20272;-83
2022/04/29 06:55:53;;;;;;;7.30;5.93;;;;;;;;;;5083900;28;20220;-78
2022/04/29 06:58:19;;;;;;;7.30;5.57;;;;;;;;;;5086298;28;20188;-77
2022/04/29 07:00:45;;;;;;;9.60;7.63;;;;;;;;;;5087766;28;20173;-77
2022/04/29 07:03:10;;;;;;;7.13;5.87;;;;;;;;;;5088461;28;20173;-78
2022/04/29 07:05:36;;;;;;;6.37;5.53;;;;;;;;;;5080339;28;20187;-78
2022/04/29 07:08:02;;;;;;;6.73;5.80;;;;;;;;;;5084993;28;20177;-77
2022/04/29 07:10:28;;;;;;;6.03;5.40;;;;;;;;;;5077852;28;20252;-78
2022/04/29 07:12:53;;;;;;;7.20;5.57;;;;;;;;;;5081980;28;20181;-78
2022/04/29 07:15:19;;;;;;;6.57;5.83;;;;;;;;;;5087110;28;20262;-77
2022/04/29 07:17:44;;;;;;;6.40;5.20;;;;;;;;;;5086830;28;20184;-77
2022/04/29 07:20:10;;;;;;;6.17;5.57;;;;;;;;;;5078518;28;20217;-78
2022/04/29 07:22:38;;;;;;;8.33;6.40;;;;;;;;;;5090462;28;20178;-77
2022/04/29 07:25:03;;;;;;;9.00;6.30;;;;;;;;;;5085768;28;20220;-78
2022/04/29 07:27:29;;;;;;;6.30;5.30;;;;;;;;;;5084568;28;20279;-78
2022/04/29 07:29:54;;;;;;;6.60;5.43;;;;;;;;;;5087974;28;20262;-77
2022/04/29 07:32:19;;;;;;;8.53;5.53;;;;;;;;;;5085122;28;20280;-78
2022/04/29 07:42:56;;;;;;;7.63;4.57;;;;;;;;;;5086086;28;20181;-78
2022/04/29 07:45:22;;;;;;;7.77;5.27;;;;;;;;;;5087154;28;20169;-78
2022/04/29 07:47:47;;;;;;;7.00;5.33;;;;;;;;;;5081817;28;20177;-78
2022/04/29 07:50:13;;;;;;;5.97;4.97;;;;;;;;;;5086879;28;20180;-77
2022/04/29 07:52:38;;;;;;;8.20;5.60;;;;;;;;;;5088012;28;20181;-78
2022/04/29 07:55:03;;;;;;;9.60;5.63;;;;;;;;;;5079940;28;20197;-77
2022/04/29 07:57:29;;;;;;;6.17;4.90;;;;;;;;;;5087200;28;20180;-78
2022/04/29 07:59:54;;;;;;;6.50;4.90;;;;;;;;;;5085915;28;20215;-78
2022/04/29 08:02:19;;;;;;;6.20;5.00;;;;;;;;;;5078042;28;20194;-78
2022/04/29 08:04:44;;;;;;;5.93;5.20;;;;;;;;;;5092119;28;20171;-78
2022/04/29 08:07:12;;;;;;;7.93;4.73;;;;;;;;;;5091791;28;20187;-77
2022/04/29 08:09:37;;;;;;;8.67;4.90;;;;;;;;;;5085495;28;20181;-77
2022/04/29 08:12:04;;;;;;;5.80;5.27;;;;;;;;;;5084370;28;20184;-78
2022/04/29 08:14:29;;;;;;;5.80;4.83;;;;;;;;;;5090446;28;20216;-78
2022/04/29 08:16:54;;;;;;;6.40;5.50;;;;;;;;;;5094384;28;20210;-77
2022/04/29 08:19:19;;;;;;;7.93;6.27;;;;;;;;;;5088465;28;20220;-78
2022/04/29 08:21:45;;;;;;;5.83;4.77;;;;;;;;;;5090643;28;20316;-78
2022/04/29 08:24:10;;;;;;;7.73;5.67;;;;;;;;;;5079075;28;20205;-78
2022/04/29 08:26:35;;;;;;;6.37;4.63;;;;;;;;;;5089146;28;20199;-78
2022/04/29 08:29:00;;;;;;;6.53;5.03;;;;;;;;;;5081101;28;20194;-78
2022/04/29 08:31:26;;;;;;;7.57;5.47;;;;;;;;;;5084908;28;20180;-77
2022/04/29 08:33:51;;;;;;;6.87;5.63;;;;;;;;;;5083458;28;20164;-77
2022/04/29 08:36:17;;;;;;;12.77;6.33;;;;;;;;;;5080729;28;20204;-78
2022/04/29 08:38:42;;;;;;;6.03;5.27;;;;;;;;;;5091995;28;20215;-78
2022/04/29 08:41:08;;;;;;;6.43;5.10;;;;;;;;;;5085198;28;20169;-78
2022/04/29 08:43:34;;;;;;;6.07;5.20;;;;;;;;;;5090260;28;20205;-78
2022/04/29 08:46:00;;;;;;;7.80;5.33;;;;;;;;;;5085054;28;20176;-78
2022/04/29 08:48:28;;;;;;;6.37;4.97;;;;;;;;;;5093232;28;20204;-79
2022/04/29 08:50:53;;;;;;;7.50;5.43;;;;;;;;;;5087022;28;20186;-78
2022/04/29 08:53:18;;;;;;;6.50;5.47;;;;;;;;;;5093474;28;20179;-77
2022/04/29 08:58:39;;;;;;;5.67;5.17;;;;;;;;;;5082157;28;20180;-77
2022/04/29 09:01:09;;;;;;;6.53;4.87;;;;;;;;;;5079219;28;20207;-78
2022/04/29 09:03:35;;;;;;;6.03;5.40;;;;;;;;;;5093767;28;20177;-79
2022/04/29 09:06:00;;;;;;;6.40;4.17;;;;;;;;;;5086469;28;20174;-78
2022/04/29 09:08:27;;;;;;;5.57;4.97;;;;;;;;;;5090286;28;20188;-78
2022/04/29 09:10:52;;;;;;;6.23;5.40;;;;;;;;;;5088247;28;20201;-77
2022/04/29 09:13:24;;;;;;;6.67;4.87;;;;;;;;;;5086845;28;20225;-78
2022/04/29 09:15:57;;;;;;;5.57;4.37;;;;;;;;;;5080807;28;20183;-78
2022/04/29 09:18:28;;;;;;;5.97;5.20;;;;;;;;;;5083837;28;20175;-77
2022/04/29 09:20:53;;;;;;;6.00;5.23;;;;;;;;;;5080207;28;20377;-77
2022/04/29 09:23:25;;;;;;;6.07;4.80;;;;;;;;;;5079695;28;20166;-77
2022/04/29 09:25:50;;;;;;;6.90;5.37;;;;;;;;;;5077964;28;20239;-78
2022/04/29 09:28:15;;;;;;;7.10;4.30;;;;;;;;;;5081954;28;20326;-78
2022/04/29 09:30:41;;;;;;;5.03;4.53;;;;;;;;;;5074608;28;20182;-77
2022/04/29 09:33:16;;;;;;;5.57;4.33;;;;;;;;;;5090871;28;20169;-78
2022/04/29 09:35:42;;;;;;;5.57;5.00;;;;;;;;;;5082937;28;20211;-77
2022/04/29 09:40:52;;;;;;;5.20;4.50;;;;;;;;;;5088617;28;20196;-77
2022/04/29 09:43:30;;;;;;;6.40;4.53;;;;;;;;;;5090755;28;20187;-77
2022/04/29 09:46:07;;;;;;;5.27;4.77;;;;;;;;;;5085606;28;20176;-77
2022/04/29 09:48:49;;;;;;;4.13;3.73;;;;;;;;;;5087936;28;20181;-78
2022/04/29 09:51:14;;;;;;;6.10;4.40;;;;;;;;;;5085289;28;20202;-77
2022/04/29 09:53:39;;;;;;;5.00;4.47;;;;;;;;;;5090501;28;20175;-77
2022/04/29 09:56:11;;;;;;;4.97;4.47;;;;;;;;;;5088918;28;20172;-78
2022/04/29 09:58:37;;;;;;;5.63;3.70;;;;;;;;;;5082305;28;20170;-77
2022/04/29 10:01:04;;;;;;;5.60;4.63;;;;;;;;;;5085656;28;20167;-78
2022/04/29 10:03:29;;;;;;;4.27;3.97;;;;;;;;;;5085171;28;20202;-77
2022/04/29 10:05:55;;;;;;;5.43;4.70;;;;;;;;;;5076574;28;20226;-77
2022/04/29 10:08:24;;;;;;;5.10;4.60;;;;;;;;;;5089248;28;20209;-77
2022/04/29 10:10:49;;;;;;;5.47;4.40;;;;;;;;;;5085940;28;20170;-78
2022/04/29 10:13:17;;;;;;;5.17;4.67;;;;;;;;;;5090739;28;20171;-77
2022/04/29 10:15:42;;;;;;;5.80;4.40;;;;;;;;;;5088746;28;20269;-77
2022/04/29 10:21:15;;;;;;;6.43;5.50;;;;;;;;;;5095992;28;20189;-77
2022/04/29 10:23:42;;;;;;;8.23;6.87;;;;;;;;;;5086660;28;20193;-76
2022/04/29 10:26:07;;;;;;;5.67;4.77;;;;;;;;;;5086334;28;20179;-77
2022/04/29 10:28:33;;;;;;;8.83;5.97;;;;;;;;;;5081093;28;20233;-77
2022/04/29 10:31:05;;;;;;;4.57;4.17;;;;;;;;;;5087212;28;20444;-77
2022/04/29 10:33:30;;;;;;;4.80;4.00;;;;;;;;;;5085788;28;20489;-77
2022/04/29 10:35:56;;;;;;;6.27;4.20;;;;;;;;;;5075183;28;20230;-77
2022/04/29 10:38:23;;;;;;;4.90;4.40;;;;;;;;;;5086437;28;20165;-77
2022/04/29 10:41:08;;;;;;;5.10;4.70;;;;;;;;;;5084434;28;20189;-77
2022/04/29 10:43:38;;;;;;;6.17;4.93;;;;;;;;;;5105209;28;20172;-77
2022/04/29 10:46:03;;;;;;;6.23;5.10;;;;;;;;;;5088675;28;20199;-77
2022/04/29 10:48:29;;;;;;;4.93;4.43;;;;;;;;;;5083423;28;20262;-77
2022/04/29 10:50:54;;;;;;;5.17;4.60;;;;;;;;;;5087672;28;20183;-77
2022/04/29 10:53:21;;;;;;;5.57;4.80;;;;;;;;;;5077864;28;20278;-77
2022/04/29 10:55:46;;;;;;;7.53;4.60;;;;;;;;;;5088306;28;20183;-77
2022/04/29 10:58:21;;;;;;;5.93;4.23;;;;;;;;;;5083120;28;20179;-77
2022/04/29 11:00:53;;;;;;;5.90;4.73;;;;;;;;;;5083816;28;20181;-77
2022/04/29 11:03:43;;;;;;;4.70;4.10;;;;;;;;;;5086876;28;20194;-77
2022/04/29 11:06:10;;;;;;;4.73;4.33;;;;;;;;;;5087377;28;20215;-77
2022/04/29 11:08:35;;;;;;;5.20;4.70;;;;;;;;;;5084776;28;20174;-77
2022/04/29 11:11:01;;;;;;;5.70;4.90;;;;;;;;;;5087748;28;20224;-77
2022/04/29 11:13:27;;;;;;;5.30;4.90;;;;;;;;;;5088978;28;20241;-77
2022/04/29 11:15:52;;;;;;;5.77;4.90;;;;;;;;;;5085054;28;20179;-77
2022/04/29 11:18:19;;;;;;;5.67;4.67;;;;;;;;;;5078383;28;20263;-77
2022/04/29 11:20:45;;;;;;;5.07;4.57;;;;;;;;;;5082337;28;20221;-77
2022/04/29 11:25:57;;;;;;;5.40;4.90;;;;;;;;;;5084509;28;20188;-77
2022/04/29 11:28:23;;;;;;;6.03;4.93;;;;;;;;;;5087839;28;20236;-77
2022/04/29 11:30:49;;;;;;;5.13;4.63;;;;;;;;;;5086651;28;20185;-77
2022/04/29 11:33:14;;;;;;;5.90;4.90;;;;;;;;;;5093520;28;20208;-77
2022/04/29 11:35:40;;;;;;;6.67;4.70;;;;;;;;;;5087112;28;20185;-77
2022/04/29 11:38:07;;;;;;;6.83;5.40;;;;;;;;;;5086760;28;20174;-77
2022/04/29 11:40:36;;;;;;;5.67;5.17;;;;;;;;;;5080278;28;20212;-77
2022/04/29 11:43:05;;;;;;;6.43;5.93;;;;;;;;;;5091898;28;20172;-77
2022/04/29 11:45:30;;;;;;;5.53;4.93;;;;;;;;;;5082829;28;20412;-77
2022/04/29 11:48:05;;;;;;;6.97;5.53;;;;;;;;;;5087652;28;20183;-77
2022/04/29 11:50:31;;;;;;;7.47;4.90;;;;;;;;;;5080597;28;20185;-77
2022/04/29 11:53:07;;;;;;;5.63;5.13;;;;;;;;;;5085328;28;20170;-77
2022/04/29 11:55:32;;;;;;;5.83;5.00;;;;;;;;;;5087503;28;20188;-77
2022/04/29 11:57:58;;;;;;;4.97;4.47;;;;;;;;;;5088951;28;20254;-77
2022/04/29 12:00:25;;;;;;;4.90;4.50;;;;;;;;;;5087710;28;20212;-77
2022/04/29 12:02:51;;;;;;;5.10;4.60;;;;;;;;;;5084326;28;20173;-77
2022/04/29 12:05:16;;;;;;;5.23;4.83;;;;;;;;;;5088094;28;20179;-77
2022/04/29 12:07:42;;;;;;;5.27;4.77;;;;;;;;;;5086084;28;20254;-77
2022/04/29 12:10:27;;;;;;;5.87;5.30;;;;;;;;;;5088066;28;20182;-77
2022/04/29 12:12:56;;;;;;;7.40;5.63;;;;;;;;;;5097444;28;20230;-77
2022/04/29 12:15:24;;;;;;;6.53;5.57;;;;;;;;;;5093534;28;20254;-77
2022/04/29 12:17:49;;;;;;;6.10;5.50;;;;;;;;;;5088736;28;20209;-77
2022/04/29 12:20:16;;;;;;;5.80;5.30;;;;;;;;;;5085068;28;20239;-77
2022/04/29 12:22:41;;;;;;;5.80;5.23;;;;;;;;;;5084174;28;20175;-77
2022/04/29 12:25:24;;;;;;;4.90;4.43;;;;;;;;;;5079131;28;20166;-77
2022/04/29 12:28:05;;;;;;;7.57;5.10;;;;;;;;;;5085672;28;20217;-77
2022/04/29 12:36:10;;;;;;;5.53;4.50;;;;;;;;;;5082883;28;20192;-77
2022/04/29 12:38:36;;;;;;;4.30;4.00;;;;;;;;;;5082411;28;20176;-77
2022/04/29 12:41:20;;;;;;;4.93;4.53;;;;;;;;;;5083226;28;20211;-77
2022/04/29 12:43:45;;;;;;;19.27;11.80;;;;;;;;;;5084793;28;20263;-77
2022/04/29 12:46:18;;;;;;;8.33;5.27;;;;;;;;;;5088960;28;20238;-77
2022/04/29 12:48:44;;;;;;;5.10;4.60;;;;;;;;;;5083098;28;20170;-77
2022/04/29 12:51:21;;;;;;;5.30;4.80;;;;;;;;;;5087829;28;20239;-77
2022/04/29 12:53:46;;;;;;;5.00;4.50;;;;;;;;;;5086667;28;20252;-78
2022/04/29 12:56:21;;;;;;;4.97;4.47;;;;;;;;;;5076809;28;20267;-77
2022/04/29 12:58:47;;;;;;;5.63;4.50;;;;;;;;;;5086357;28;20191;-77
2022/04/29 13:01:13;;;;;;;8.93;7.63;;;;;;;;;;5090017;28;20174;-77
2022/04/29 13:03:38;;;;;;;6.97;5.53;;;;;;;;;;5076829;28;20187;-76
2022/04/29 13:06:03;;;;;;;8.63;5.80;;;;;;;;;;5078771;28;20205;-74
2022/04/29 13:08:29;;;;;;;7.70;5.33;;;;;;;;;;5076945;28;20177;-74
2022/04/29 13:10:55;;;;;;;5.60;5.00;;;;;;;;;;5080755;28;20185;-75
2022/04/29 13:13:21;;;;;;;4.30;4.00;;;;;;;;;;5082564;28;20183;-74
2022/04/29 13:15:47;;;;;;;5.63;5.13;;;;;;;;;;5083502;28;20236;-74
2022/04/29 13:18:14;;;;;;;4.30;3.90;;;;;;;;;;5089160;28;20183;-74
2022/04/29 13:20:39;;;;;;;6.10;4.40;;;;;;;;;;5085409;28;20207;-74
2022/04/29 13:23:05;;;;;;;4.43;4.13;;;;;;;;;;5078765;28;20180;-74
2022/04/29 13:25:30;;;;;;;5.53;3.83;;;;;;;;;;5073704;28;20200;-74
2022/04/29 13:27:55;;;;;;;4.20;3.77;;;;;;;;;;5087860;28;20312;-75
2022/04/29 13:30:21;;;;;;;4.13;3.83;;;;;;;;;;5082169;28;20196;-74
2022/04/29 13:32:46;;;;;;;5.90;3.80;;;;;;;;;;5086485;28;20178;-74
2022/04/29 13:35:12;;;;;;;4.80;4.37;;;;;;;;;;5079310;28;20184;-74
2022/04/29 13:37:39;;;;;;;4.47;4.17;;;;;;;;;;5083790;28;20180;-74
2022/04/29 13:40:04;;;;;;;4.50;4.20;;;;;;;;;;5077261;28;20205;-75
2022/04/29 13:42:30;;;;;;;6.17;4.07;;;;;;;;;;5077358;28;20169;-75
2022/04/29 13:44:56;;;;;;;4.43;3.97;;;;;;;;;;5086728;28;20256;-75
2022/04/29 13:47:21;;;;;;;4.70;4.33;;;;;;;;;;5087856;28;20323;-74
2022/04/29 13:49:46;;;;;;;7.20;4.37;;;;;;;;;;5085578;28;20271;-75
2022/04/29 13:54:55;;;;;;;3.93;3.53;;;;;;;;;;5077307;28;20193;-74
2022/04/29 13:57:23;;;;;;;4.20;3.90;;;;;;;;;;5087700;28;20182;-75
2022/04/29 13:59:48;;;;;;;5.77;4.20;;;;;;;;;;5087860;28;20485;-74
2022/04/29 14:02:13;;;;;;;4.80;4.00;;;;;;;;;;5086041;28;20173;-74
2022/04/29 14:04:38;;;;;;;4.13;3.70;;;;;;;;;;5089634;28;20265;-74
2022/04/29 14:07:03;;;;;;;9.30;3.60;;;;;;;;;;5086868;28;20196;-74
2022/04/29 14:09:29;;;;;;;3.80;3.50;;;;;;;;;;5081911;28;20182;-74
2022/04/29 14:11:54;;;;;;;4.50;4.10;;;;;;;;;;5083758;28;20180;-74
2022/04/29 14:14:19;;;;;;;3.83;3.53;;;;;;;;;;5087411;28;20193;-74
2022/04/29 14:16:44;;;;;;;4.03;3.63;;;;;;;;;;5078566;28;20224;-74
2022/04/29 14:19:09;;;;;;;7.27;3.50;;;;;;;;;;5084386;28;20349;-74
2022/04/29 14:21:35;;;;;;;4.47;4.07;;;;;;;;;;5087708;28;20268;-75
2022/04/29 14:24:00;;;;;;;4.63;4.23;;;;;;;;;;5086944;28;20180;-74
2022/04/29 14:26:25;;;;;;;4.53;3.83;;;;;;;;;;5081355;28;20226;-75
2022/04/29 14:28:50;;;;;;;5.53;4.60;;;;;;;;;;5089599;28;20240;-74
2022/04/29 14:31:16;;;;;;;3.60;3.30;;;;;;;;;;5085870;28;20358;-74
2022/04/29 14:33:43;;;;;;;6.10;3.90;;;;;;;;;;5080808;28;20211;-74
2022/04/29 14:36:09;;;;;;;4.10;3.80;;;;;;;;;;5098036;28;20185;-75
2022/04/29 14:38:34;;;;;;;6.23;4.23;;;;;;;;;;5076040;28;20427;-74
2022/04/29 14:40:59;;;;;;;5.07;3.63;;;;;;;;;;5086150;28;20235;-74
2022/04/29 14:43:25;;;;;;;4.67;4.27;;;;;;;;;;5083222;28;20168;-74
2022/04/29 14:45:50;;;;;;;7.30;5.00;;;;;;;;;;5087115;28;20191;-74
2022/04/29 14:48:15;;;;;;;4.73;4.33;;;;;;;;;;5077452;28;20211;-74
2022/04/29 14:50:40;;;;;;;4.90;4.07;;;;;;;;;;5082902;28;20259;-74
2022/04/29 14:53:06;;;;;;;9.33;5.30;;;;;;;;;;5076168;28;20186;-75
2022/04/29 14:55:31;;;;;;;10.10;5.30;;;;;;;;;;5080911;28;20185;-74
2022/04/29 14:57:56;;;;;;;5.03;4.47;;;;;;;;;;5080928;28;20216;-75
2022/04/29 15:00:21;;;;;;;7.27;4.87;;;;;;;;;;5080127;28;20208;-74
2022/04/29 15:02:48;;;;;;;4.47;4.07;;;;;;;;;;5086874;28;20167;-74
2022/04/29 15:05:15;;;;;;;4.80;4.40;;;;;;;;;;5075976;28;20255;-74